createdAt,value
2019-05-23T00:02:19.482Z,57.53
2019-05-23T00:04:45.484Z,57.54
2019-05-23T00:07:11.479Z,57.55
2019-05-23T00:09:37.500Z,57.56
2019-05-23T00:12:03.493Z,57.59
2019-05-23T00:14:29.512Z,57.59
2019-05-23T00:16:55.507Z,57.56
2019-05-23T00:19:21.562Z,57.54
2019-05-23T00:21:47.569Z,57.59
2019-05-23T00:24:13.586Z,57.59
2019-05-23T00:26:39.611Z,57.61
2019-05-23T00:29:10.165Z,57.56
2019-05-23T00:31:31.641Z,57.57
2019-05-23T00:33:57.633Z,57.58
2019-05-23T00:36:23.661Z,57.58
2019-05-23T00:38:49.652Z,57.60
2019-05-23T00:41:15.675Z,57.61
2019-05-23T00:43:41.680Z,57.60
2019-05-23T00:46:07.685Z,57.59
2019-05-23T00:48:33.719Z,57.58
2019-05-23T00:50:59.724Z,57.61
2019-05-23T00:53:25.742Z,57.61
2019-05-23T00:55:51.747Z,57.61
2019-05-23T00:58:17.763Z,57.57
2019-05-23T01:00:43.759Z,57.61
2019-05-23T01:03:09.779Z,57.59
2019-05-23T01:05:35.801Z,57.59
2019-05-23T01:08:01.804Z,57.60
2019-05-23T01:10:27.822Z,57.58
2019-05-23T01:12:53.811Z,57.60
2019-05-23T01:15:19.814Z,57.58
2019-05-23T01:17:45.831Z,57.58
2019-05-23T01:20:11.867Z,57.61
2019-05-23T01:22:37.849Z,57.60
2019-05-23T01:25:03.876Z,57.56
2019-05-23T01:27:29.874Z,57.59
2019-05-23T01:29:55.891Z,57.56
2019-05-23T01:32:21.864Z,57.58
2019-05-23T01:34:47.884Z,57.58
2019-05-23T01:37:13.967Z,57.56
2019-05-23T01:39:39.853Z,57.60
2019-05-23T01:42:05.857Z,57.57
2019-05-23T01:44:31.852Z,57.58
2019-05-23T01:46:57.928Z,57.57
2019-05-23T01:49:23.879Z,57.58
2019-05-23T01:51:49.901Z,57.58
2019-05-23T01:54:15.913Z,57.57
2019-05-23T01:56:41.909Z,57.58
2019-05-23T01:59:07.916Z,57.57
2019-05-23T02:01:33.922Z,57.57
2019-05-23T02:03:59.920Z,57.56
2019-05-23T02:06:25.947Z,57.57
2019-05-23T02:08:51.942Z,57.56
2019-05-23T02:11:17.960Z,57.56
2019-05-23T02:13:43.947Z,57.55
2019-05-23T02:16:09.974Z,57.56
2019-05-23T02:18:35.980Z,57.53
2019-05-23T02:21:01.993Z,57.56
2019-05-23T02:23:28.104Z,57.55
2019-05-23T02:25:54.102Z,57.55
2019-05-23T02:28:20.114Z,57.55
2019-05-23T02:30:46.112Z,57.52
2019-05-23T02:33:12.077Z,57.51
2019-05-23T02:35:38.191Z,57.54
2019-05-23T02:38:04.069Z,57.55
2019-05-23T02:40:30.056Z,57.55
2019-05-23T02:42:56.038Z,57.54
2019-05-23T02:45:22.027Z,57.53
2019-05-23T02:47:48.014Z,57.54
2019-05-23T02:50:14.007Z,57.52
2019-05-23T02:52:39.995Z,57.53
2019-05-23T02:55:05.986Z,57.53
2019-05-23T02:57:31.970Z,57.52
2019-05-23T02:59:57.966Z,57.51
2019-05-23T03:02:23.947Z,57.52
2019-05-23T03:04:49.930Z,57.51
2019-05-23T03:07:15.913Z,57.50
2019-05-23T03:09:41.894Z,57.50
2019-05-23T03:12:07.890Z,57.51
2019-05-23T03:14:33.876Z,57.51
2019-05-23T03:16:59.877Z,57.51
2019-05-23T03:19:25.851Z,57.48
2019-05-23T03:21:51.859Z,57.48
2019-05-23T03:24:17.846Z,57.50
2019-05-23T03:26:43.932Z,57.49
2019-05-23T03:29:09.924Z,57.49
2019-05-23T03:31:35.953Z,57.48
2019-05-23T03:34:01.969Z,57.48
2019-05-23T03:36:28.024Z,57.48
2019-05-23T03:38:54.021Z,57.47
2019-05-23T03:41:20.021Z,57.48
2019-05-23T03:43:46.036Z,57.48
2019-05-23T03:46:12.026Z,57.46
2019-05-23T03:48:38.005Z,57.47
2019-05-23T03:51:03.995Z,57.47
2019-05-23T03:53:29.974Z,57.46
2019-05-23T03:55:55.962Z,57.46
2019-05-23T03:58:21.971Z,57.46
2019-05-23T04:00:47.959Z,57.45
2019-05-23T04:03:13.952Z,57.44
2019-05-23T04:05:39.946Z,57.45
2019-05-23T04:08:05.931Z,57.44
2019-05-23T04:10:31.942Z,57.44
2019-05-23T04:12:57.973Z,57.44
2019-05-23T04:15:23.974Z,57.45
2019-05-23T04:17:49.988Z,57.46
2019-05-23T04:20:16.026Z,57.44
2019-05-23T04:22:42.032Z,57.43
2019-05-23T04:25:08.052Z,57.41
2019-05-23T04:27:34.058Z,57.43
2019-05-23T04:30:00.084Z,57.43
2019-05-23T04:32:26.072Z,57.41
2019-05-23T04:34:52.103Z,57.42
2019-05-23T04:37:18.133Z,57.42
2019-05-23T04:39:44.097Z,57.41
2019-05-23T04:42:10.127Z,57.40
2019-05-23T04:44:36.144Z,57.42
2019-05-23T04:47:02.238Z,57.41
2019-05-23T04:49:28.220Z,57.39
2019-05-23T04:51:54.247Z,57.39
2019-05-23T04:54:20.243Z,57.41
2019-05-23T04:56:46.271Z,57.39
2019-05-23T04:59:12.307Z,57.39
2019-05-23T05:01:38.305Z,57.39
2019-05-23T05:04:04.327Z,57.38
2019-05-23T05:06:30.333Z,57.39
2019-05-23T05:08:56.338Z,57.38
2019-05-23T05:11:22.396Z,57.38
2019-05-23T05:13:48.391Z,57.38
2019-05-23T05:16:14.412Z,57.38
2019-05-23T05:18:40.428Z,57.37
2019-05-23T05:21:06.431Z,57.38
2019-05-23T05:23:32.460Z,57.38
2019-05-23T05:25:58.462Z,57.38
2019-05-23T05:28:24.533Z,57.38
2019-05-23T05:30:50.482Z,57.38
2019-05-23T05:33:16.466Z,57.38
2019-05-23T05:35:42.453Z,57.37
2019-05-23T05:38:08.548Z,57.38
2019-05-23T05:40:34.450Z,57.35
2019-05-23T05:43:00.435Z,57.36
2019-05-23T05:45:26.417Z,57.35
2019-05-23T05:47:52.404Z,57.36
2019-05-23T05:50:18.419Z,57.36
2019-05-23T05:52:44.420Z,57.37
2019-05-23T05:55:10.489Z,57.35
2019-05-23T05:57:36.486Z,57.36
2019-05-23T06:00:02.487Z,57.35
2019-05-23T06:02:28.487Z,57.37
2019-05-23T06:04:54.470Z,57.36
2019-05-23T06:07:20.469Z,57.34
2019-05-23T06:09:46.442Z,57.35
2019-05-23T06:12:12.431Z,57.34
2019-05-23T06:14:38.435Z,57.34
2019-05-23T06:17:04.429Z,57.34
2019-05-23T06:19:30.423Z,57.34
2019-05-23T06:21:56.424Z,57.33
2019-05-23T06:24:39.931Z,57.38
2019-05-23T06:26:48.411Z,57.34
2019-05-23T06:29:14.420Z,57.32
2019-05-23T06:31:40.492Z,57.33
2019-05-23T06:34:06.507Z,57.34
2019-05-23T06:36:32.519Z,57.33
2019-05-23T06:38:58.545Z,57.33
2019-05-23T06:41:24.596Z,57.31
2019-05-23T06:43:50.709Z,57.30
2019-05-23T06:46:16.709Z,57.32
2019-05-23T06:48:45.697Z,57.34
2019-05-23T06:51:08.726Z,57.30
2019-05-23T06:53:34.727Z,57.30
2019-05-23T06:56:00.751Z,57.27
2019-05-23T06:58:26.809Z,57.29
2019-05-23T07:00:52.774Z,57.30
2019-05-23T07:03:18.771Z,57.26
2019-05-23T07:05:44.778Z,57.29
2019-05-23T07:08:10.826Z,57.27
2019-05-23T07:10:36.816Z,57.27
2019-05-23T07:13:02.847Z,57.31
2019-05-23T07:15:28.864Z,57.31
2019-05-23T07:17:54.938Z,57.28
2019-05-23T07:20:20.962Z,57.31
2019-05-23T07:22:47.015Z,57.29
2019-05-23T07:25:13.032Z,57.30
2019-05-23T07:27:39.039Z,57.28
2019-05-23T07:30:05.164Z,57.28
2019-05-23T07:32:31.186Z,57.31
2019-05-23T07:34:57.162Z,57.28
2019-05-23T07:37:23.185Z,57.30
2019-05-23T07:39:49.179Z,57.31
2019-05-23T07:42:15.203Z,57.32
2019-05-23T07:44:48.296Z,57.31
2019-05-23T07:47:07.221Z,57.33
2019-05-23T07:49:33.243Z,57.31
2019-05-23T07:51:59.256Z,57.33
2019-05-23T07:54:25.309Z,57.32
2019-05-23T07:56:51.310Z,57.30
2019-05-23T07:59:17.314Z,57.31
2019-05-23T08:01:43.325Z,57.30
2019-05-23T08:04:20.599Z,57.33
2019-05-23T08:06:35.391Z,57.32
2019-05-23T08:09:01.390Z,57.30
2019-05-23T08:11:27.466Z,57.32
2019-05-23T08:13:53.439Z,57.32
2019-05-23T08:16:19.430Z,57.33
2019-05-23T08:18:45.566Z,57.31
2019-05-23T08:21:11.567Z,57.29
2019-05-23T08:23:37.604Z,57.30
2019-05-23T08:26:03.601Z,57.31
2019-05-23T08:28:29.652Z,57.30
2019-05-23T08:30:55.718Z,57.29
2019-05-23T08:33:21.654Z,57.27
2019-05-23T08:35:47.675Z,57.24
2019-05-23T08:38:13.684Z,57.28
2019-05-23T08:40:39.714Z,57.28
2019-05-23T08:43:05.719Z,57.25
2019-05-23T08:45:31.736Z,57.28
2019-05-23T08:47:57.735Z,57.30
2019-05-23T08:50:23.752Z,57.26
2019-05-23T08:52:49.766Z,57.26
2019-05-23T08:55:15.821Z,57.26
2019-05-23T08:57:41.788Z,57.25
2019-05-23T09:00:07.781Z,57.26
2019-05-23T09:02:33.776Z,57.23
2019-05-23T09:05:05.483Z,57.25
2019-05-23T09:07:25.797Z,57.21
2019-05-23T09:09:51.819Z,57.27
2019-05-23T09:12:17.852Z,57.25
2019-05-23T09:14:43.834Z,57.21
2019-05-23T09:17:09.977Z,57.24
2019-05-23T09:19:35.900Z,57.22
2019-05-23T09:22:01.926Z,57.16
2019-05-23T09:24:27.917Z,57.16
2019-05-23T09:26:53.930Z,57.14
2019-05-23T09:29:19.970Z,57.12
2019-05-23T09:31:46.020Z,57.12
2019-05-23T09:34:11.982Z,57.15
2019-05-23T09:36:37.974Z,57.12
2019-05-23T09:39:04.008Z,57.15
2019-05-23T09:41:29.992Z,57.13
2019-05-23T09:43:56.054Z,57.06
2019-05-23T09:46:22.043Z,57.11
2019-05-23T09:48:48.066Z,57.10
2019-05-23T09:51:14.078Z,57.09
2019-05-23T09:53:40.077Z,57.07
2019-05-23T09:56:06.145Z,57.08
2019-05-23T09:58:32.152Z,57.08
2019-05-23T10:00:58.175Z,57.08
2019-05-23T10:03:24.183Z,57.14
2019-05-23T10:05:50.205Z,57.07
2019-05-23T10:08:16.227Z,57.09
2019-05-23T10:10:42.226Z,57.09
2019-05-23T10:13:08.305Z,57.07
2019-05-23T10:15:34.438Z,57.08
2019-05-23T10:18:01.065Z,57.08
2019-05-23T10:20:26.578Z,57.06
2019-05-23T10:22:52.608Z,57.05
2019-05-23T10:25:18.625Z,57.04
2019-05-23T10:27:44.631Z,57.05
2019-05-23T10:30:10.627Z,57.06
2019-05-23T10:32:36.653Z,57.04
2019-05-23T10:35:02.644Z,57.04
2019-05-23T10:37:28.759Z,57.06
2019-05-23T10:39:54.755Z,57.05
2019-05-23T10:42:20.803Z,57.04
2019-05-23T10:44:46.804Z,57.04
2019-05-23T10:47:12.853Z,57.04
2019-05-23T10:49:38.874Z,57.05
2019-05-23T10:52:04.868Z,57.04
2019-05-23T10:54:30.882Z,57.03
2019-05-23T10:56:56.876Z,57.03
2019-05-23T10:59:22.906Z,57.03
2019-05-23T11:01:48.920Z,57.03
2019-05-23T11:04:14.964Z,57.02
2019-05-23T11:06:40.930Z,57.03
2019-05-23T11:09:07.017Z,57.03
2019-05-23T11:11:33.030Z,57.04
2019-05-23T11:13:59.031Z,57.02
2019-05-23T11:16:25.033Z,57.04
2019-05-23T11:18:51.045Z,57.01
2019-05-23T11:21:17.104Z,57.02
2019-05-23T11:23:43.126Z,57.01
2019-05-23T11:26:09.134Z,57.02
2019-05-23T11:28:35.243Z,57.01
2019-05-23T11:31:01.228Z,57.02
2019-05-23T11:33:27.267Z,57.01
2019-05-23T11:35:53.272Z,57.02
2019-05-23T11:38:19.272Z,57.02
2019-05-23T11:40:45.308Z,57.01
2019-05-23T11:43:11.304Z,57.00
2019-05-23T11:45:45.611Z,57.00
2019-05-23T11:48:03.373Z,57.01
2019-05-23T11:50:29.377Z,56.99
2019-05-23T11:52:56.234Z,56.98
2019-05-23T11:55:21.396Z,56.99
2019-05-23T11:57:47.411Z,57.00
2019-05-23T12:00:13.407Z,56.98
2019-05-23T12:02:39.421Z,56.99
2019-05-23T12:05:05.421Z,56.98
2019-05-23T12:07:31.422Z,56.99
2019-05-23T12:09:57.452Z,56.96
2019-05-23T12:12:23.467Z,56.98
2019-05-23T12:14:49.492Z,57.01
2019-05-23T12:17:15.558Z,56.98
2019-05-23T12:19:41.881Z,56.97
2019-05-23T12:22:07.595Z,56.98
2019-05-23T12:24:35.522Z,57.03
2019-05-23T12:26:59.614Z,57.00
2019-05-23T12:29:25.700Z,56.99
2019-05-23T12:31:51.675Z,56.95
2019-05-23T12:34:17.713Z,56.97
2019-05-23T12:36:43.706Z,56.97
2019-05-23T12:39:09.731Z,56.93
2019-05-23T12:41:35.808Z,56.98
2019-05-23T12:44:01.828Z,56.98
2019-05-23T12:46:27.853Z,57.00
2019-05-23T12:48:53.856Z,56.98
2019-05-23T12:51:19.908Z,56.96
2019-05-23T12:53:45.988Z,56.96
2019-05-23T12:56:12.580Z,56.96
2019-05-23T12:58:38.086Z,56.94
2019-05-23T13:01:04.076Z,56.95
2019-05-23T13:03:30.102Z,56.95
2019-05-23T13:05:56.158Z,56.95
2019-05-23T13:08:22.132Z,56.96
2019-05-23T13:10:48.148Z,56.94
2019-05-23T13:13:14.144Z,57.03
2019-05-23T13:15:40.174Z,56.94
2019-05-23T13:18:06.165Z,56.97
2019-05-23T13:20:32.205Z,56.96
2019-05-23T13:22:58.250Z,56.93
2019-05-23T13:25:24.238Z,56.97
2019-05-23T13:27:50.265Z,56.94
2019-05-23T13:30:16.283Z,56.92
2019-05-23T13:32:42.281Z,57.01
2019-05-23T13:35:08.280Z,56.93
2019-05-23T13:37:34.320Z,56.91
2019-05-23T13:40:00.368Z,56.92
2019-05-23T13:42:26.386Z,56.92
2019-05-23T13:44:52.403Z,56.90
2019-05-23T13:47:18.468Z,56.91
2019-05-23T13:49:44.480Z,56.93
2019-05-23T13:52:10.519Z,56.93
2019-05-23T13:54:37.155Z,56.92
2019-05-23T13:57:02.790Z,56.93
2019-05-23T13:59:28.609Z,56.93
2019-05-23T14:01:54.622Z,56.92
2019-05-23T14:04:20.766Z,56.91
2019-05-23T14:06:46.793Z,56.91
2019-05-23T14:09:12.783Z,56.92
2019-05-23T14:11:38.781Z,56.90
2019-05-23T14:14:05.091Z,56.92
2019-05-23T14:16:30.816Z,56.91
2019-05-23T14:18:56.818Z,56.92
2019-05-23T14:21:22.825Z,56.92
2019-05-23T14:23:48.829Z,56.91
2019-05-23T14:26:14.864Z,56.92
2019-05-23T14:28:40.867Z,56.90
2019-05-23T14:31:06.869Z,56.91
2019-05-23T14:33:32.870Z,56.92
2019-05-23T14:35:58.871Z,56.91
2019-05-23T14:38:30.770Z,56.92
2019-05-23T14:40:50.901Z,56.93
2019-05-23T14:43:16.874Z,56.93
2019-05-23T14:45:42.882Z,56.99
2019-05-23T14:48:11.721Z,56.90
2019-05-23T14:50:34.931Z,56.94
2019-05-23T14:53:00.937Z,56.89
2019-05-23T14:55:26.931Z,56.91
2019-05-23T14:57:52.929Z,56.87
2019-05-23T15:00:19.059Z,56.93
2019-05-23T15:02:45.060Z,56.87
2019-05-23T15:05:11.085Z,56.92
2019-05-23T15:07:37.082Z,56.93
2019-05-23T15:10:03.085Z,56.93
2019-05-23T15:12:29.085Z,56.88
2019-05-23T15:14:55.087Z,56.87
2019-05-23T15:17:21.083Z,56.95
2019-05-23T15:19:47.137Z,56.90
2019-05-23T15:22:13.111Z,56.86
2019-05-23T15:24:39.123Z,56.85
2019-05-23T15:27:05.162Z,56.85
2019-05-23T15:29:31.171Z,56.88
2019-05-23T15:32:02.282Z,56.89
2019-05-23T15:34:23.168Z,56.83
2019-05-23T15:36:49.182Z,56.85
2019-05-23T15:39:15.258Z,56.84
2019-05-23T15:41:41.228Z,56.86
2019-05-23T15:44:24.138Z,56.83
2019-05-23T15:46:33.301Z,56.85
2019-05-23T15:48:59.308Z,56.87
2019-05-23T15:51:25.330Z,56.81
2019-05-23T15:53:51.316Z,56.82
2019-05-23T15:56:27.590Z,56.82
2019-05-23T15:58:43.347Z,56.79
2019-05-23T16:01:09.351Z,56.81
2019-05-23T16:03:35.362Z,56.85
2019-05-23T16:06:01.375Z,56.84
2019-05-23T16:08:27.410Z,56.83
2019-05-23T16:10:53.409Z,56.78
2019-05-23T16:13:19.427Z,56.81
2019-05-23T16:15:45.475Z,56.74
2019-05-23T16:18:11.489Z,56.76
2019-05-23T16:20:37.538Z,56.81
2019-05-23T16:23:03.579Z,56.79
2019-05-23T16:25:29.605Z,56.80
2019-05-23T16:27:55.597Z,56.75
2019-05-23T16:30:21.622Z,56.77
2019-05-23T16:32:47.624Z,56.77
2019-05-23T16:35:13.644Z,56.78
2019-05-23T16:37:39.664Z,56.88
2019-05-23T16:40:05.647Z,56.81
2019-05-23T16:42:31.674Z,56.78
2019-05-23T16:44:57.676Z,56.82
2019-05-23T16:47:23.707Z,56.90
2019-05-23T16:49:49.820Z,56.83
2019-05-23T16:52:15.957Z,56.89
2019-05-23T16:54:41.981Z,56.88
2019-05-23T16:57:10.787Z,56.86
2019-05-23T16:59:36.791Z,56.78
2019-05-23T17:02:06.455Z,56.78
2019-05-23T17:04:28.926Z,56.83
2019-05-23T17:06:54.940Z,56.79
2019-05-23T17:09:20.944Z,56.87
2019-05-23T17:11:46.964Z,56.87
2019-05-23T17:14:12.984Z,56.87
2019-05-23T17:16:39.002Z,56.91
2019-05-23T17:19:05.022Z,56.90
2019-05-23T17:21:31.069Z,56.92
2019-05-23T17:23:57.082Z,56.82
2019-05-23T17:26:23.119Z,56.89
2019-05-23T17:28:49.076Z,56.92
2019-05-23T17:31:15.205Z,56.86
2019-05-23T17:33:41.245Z,56.81
2019-05-23T17:36:07.272Z,56.83
2019-05-23T17:38:33.278Z,56.85
2019-05-23T17:40:59.272Z,56.96
2019-05-23T17:43:25.327Z,56.90
2019-05-23T17:45:51.291Z,56.99
2019-05-23T17:48:17.373Z,56.84
2019-05-23T17:50:43.309Z,56.85
2019-05-23T17:53:09.324Z,56.86
2019-05-23T17:55:35.324Z,56.84
2019-05-23T17:58:01.324Z,56.87
2019-05-23T18:00:27.338Z,56.85
2019-05-23T18:02:53.339Z,56.87
2019-05-23T18:05:19.363Z,56.88
2019-05-23T18:07:45.441Z,56.88
2019-05-23T18:10:11.435Z,56.90
2019-05-23T18:12:37.519Z,56.87
2019-05-23T18:15:03.523Z,56.87
2019-05-23T18:17:29.529Z,56.90
2019-05-23T18:19:55.548Z,56.89
2019-05-23T18:22:21.565Z,56.90
2019-05-23T18:24:47.586Z,56.94
2019-05-23T18:27:13.587Z,56.92
2019-05-23T18:29:39.610Z,56.93
2019-05-23T18:32:05.607Z,56.91
2019-05-23T18:34:31.627Z,56.93
2019-05-23T18:36:57.645Z,56.98
2019-05-23T18:39:23.644Z,56.96
2019-05-23T18:41:49.667Z,56.95
2019-05-23T18:44:15.664Z,56.93
2019-05-23T18:46:41.769Z,56.97
2019-05-23T18:49:07.769Z,56.97
2019-05-23T18:51:33.837Z,56.95
2019-05-23T18:53:59.831Z,56.93
2019-05-23T18:56:25.829Z,56.98
2019-05-23T18:58:51.853Z,56.97
2019-05-23T19:01:17.849Z,56.96
2019-05-23T19:03:43.877Z,56.96
2019-05-23T19:06:09.872Z,56.97
2019-05-23T19:08:35.896Z,56.97
2019-05-23T19:11:17.810Z,56.98
2019-05-23T19:13:27.922Z,56.97
2019-05-23T19:15:53.964Z,56.95
2019-05-23T19:18:19.971Z,56.99
2019-05-23T19:20:45.988Z,57.00
2019-05-23T19:23:11.992Z,56.98
2019-05-23T19:25:37.990Z,56.97
2019-05-23T19:28:04.093Z,56.98
2019-05-23T19:30:30.112Z,56.97
2019-05-23T19:32:56.184Z,56.97
2019-05-23T19:35:22.270Z,56.98
2019-05-23T19:37:48.260Z,56.98
2019-05-23T19:40:14.421Z,56.98
2019-05-23T19:42:40.454Z,56.98
2019-05-23T19:45:06.575Z,56.98
2019-05-23T19:47:32.692Z,56.98
2019-05-23T19:49:58.847Z,57.00
2019-05-23T19:52:24.964Z,57.00
2019-05-23T19:54:51.082Z,56.99
2019-05-23T19:57:17.219Z,57.01
2019-05-23T19:59:43.347Z,57.01
2019-05-23T20:02:09.476Z,57.01
2019-05-23T20:04:35.601Z,57.01
2019-05-23T20:07:01.726Z,57.01
2019-05-23T20:09:27.712Z,57.00
2019-05-23T20:11:55.085Z,57.02
2019-05-23T20:14:19.991Z,57.01
2019-05-23T20:16:45.989Z,57.02
2019-05-23T20:19:12.038Z,57.02
2019-05-23T20:21:38.029Z,57.02
2019-05-23T20:24:04.054Z,57.02
2019-05-23T20:26:30.071Z,57.03
2019-05-23T20:28:56.097Z,57.02
2019-05-23T20:31:22.172Z,57.05
2019-05-23T20:33:48.197Z,57.02
2019-05-23T20:36:14.188Z,57.03
2019-05-23T20:38:40.193Z,57.02
2019-05-23T20:41:06.330Z,57.05
2019-05-23T20:43:32.287Z,57.06
2019-05-23T20:45:58.296Z,57.04
2019-05-23T20:48:24.324Z,57.04
2019-05-23T20:50:50.323Z,57.04
2019-05-23T20:53:16.342Z,57.04
2019-05-23T20:55:42.423Z,57.05
2019-05-23T20:58:08.417Z,57.06
2019-05-23T21:00:34.829Z,57.03
2019-05-23T21:03:00.849Z,57.03
2019-05-23T21:05:26.862Z,57.04
2019-05-23T21:07:52.863Z,57.05
2019-05-23T21:10:18.961Z,57.06
2019-05-23T21:12:44.969Z,57.05
2019-05-23T21:15:10.962Z,57.05
2019-05-23T21:17:37.039Z,57.05
2019-05-23T21:20:05.113Z,57.06
2019-05-23T21:22:29.039Z,57.06
2019-05-23T21:24:55.037Z,57.05
2019-05-23T21:27:21.087Z,57.05
2019-05-23T21:29:47.076Z,57.06
2019-05-23T21:32:13.075Z,57.04
2019-05-23T21:34:39.091Z,57.04
2019-05-23T21:37:05.102Z,57.04
2019-05-23T21:39:31.162Z,57.04
2019-05-23T21:41:57.154Z,57.04
2019-05-23T21:44:23.174Z,57.04
2019-05-23T21:46:49.174Z,57.04
2019-05-23T21:49:15.199Z,57.02
2019-05-23T21:51:41.248Z,57.03
2019-05-23T21:54:07.208Z,57.04
2019-05-23T21:56:33.231Z,57.04
2019-05-23T21:58:59.233Z,57.04
2019-05-23T22:01:25.236Z,57.03
2019-05-23T22:03:51.278Z,57.04
2019-05-23T22:06:17.257Z,57.04
2019-05-23T22:08:43.289Z,57.03
2019-05-23T22:11:09.304Z,57.04
2019-05-23T22:13:35.311Z,57.02
2019-05-23T22:16:01.322Z,57.04
2019-05-23T22:18:27.329Z,57.05
2019-05-23T22:20:53.347Z,57.03
2019-05-23T22:23:19.339Z,57.04
2019-05-23T22:25:45.353Z,57.05
2019-05-23T22:28:11.347Z,57.05
2019-05-23T22:30:37.338Z,57.06
2019-05-23T22:33:03.392Z,57.05
2019-05-23T22:35:29.394Z,57.08
2019-05-23T22:37:55.409Z,57.07
2019-05-23T22:40:21.437Z,57.07
2019-05-23T22:42:47.421Z,57.07
2019-05-23T22:45:13.460Z,57.05
2019-05-23T22:47:39.466Z,57.05
2019-05-23T22:50:05.461Z,57.08
2019-05-23T22:52:31.483Z,57.08
2019-05-23T22:54:57.475Z,57.11
2019-05-23T22:57:23.496Z,57.03
2019-05-23T22:59:49.505Z,57.10
2019-05-23T23:02:15.548Z,57.08
2019-05-23T23:04:41.538Z,57.10
2019-05-23T23:07:07.571Z,57.09
2019-05-23T23:09:33.584Z,57.09
2019-05-23T23:11:59.581Z,57.09
2019-05-23T23:14:25.592Z,57.11
2019-05-23T23:16:51.622Z,57.11
2019-05-23T23:19:17.595Z,57.15
2019-05-23T23:21:43.680Z,57.12
2019-05-23T23:24:09.692Z,57.13
2019-05-23T23:26:35.719Z,57.12
2019-05-23T23:29:01.738Z,57.11
2019-05-23T23:31:27.723Z,57.11
2019-05-23T23:33:53.732Z,57.10
2019-05-23T23:36:19.723Z,57.11
2019-05-23T23:38:45.732Z,57.11
2019-05-23T23:41:11.730Z,57.10
2019-05-23T23:43:37.761Z,57.12
2019-05-23T23:46:03.770Z,57.11
2019-05-23T23:48:29.757Z,57.11
2019-05-23T23:50:55.907Z,57.10
2019-05-23T23:53:21.869Z,57.11
2019-05-23T23:55:47.891Z,57.11
2019-05-23T23:58:13.878Z,57.11
